createdAt,value
2023-02-14T00:01:16.625Z,99762.97
2023-02-14T00:04:23.749Z,99759.88
2023-02-14T00:07:29.798Z,99764.78
2023-02-14T00:10:36.628Z,99758.84
2023-02-14T00:14:03.109Z,99764.59
2023-02-14T00:17:10.005Z,99769.66
2023-02-14T00:20:15.930Z,99774.00
2023-02-14T00:23:22.604Z,99775.97
2023-02-14T00:26:28.466Z,99778.28
2023-02-14T00:29:36.783Z,99772.09
2023-02-14T00:32:46.570Z,99780.47
2023-02-14T00:35:53.406Z,99779.44
2023-02-14T00:39:00.026Z,99778.69
2023-02-14T00:42:07.044Z,99784.72
2023-02-14T00:45:13.569Z,99785.75
2023-02-14T00:48:23.291Z,99781.88
2023-02-14T00:51:30.047Z,99785.63
2023-02-14T00:54:36.943Z,99765.72
2023-02-14T00:57:44.837Z,99773.13
2023-02-14T01:00:51.534Z,99781.91
2023-02-14T01:04:01.987Z,99760.63
2023-02-14T01:07:08.728Z,99784.22
2023-02-14T01:10:15.584Z,99779.34
2023-02-14T01:13:23.273Z,99781.13
2023-02-14T01:16:33.372Z,99782.34
2023-02-14T01:19:42.677Z,99780.38
2023-02-14T01:22:48.604Z,99774.94
2023-02-14T01:25:55.288Z,99773.50
2023-02-14T01:29:01.119Z,99764.09
2023-02-14T01:32:09.123Z,99773.13
2023-02-14T01:35:17.856Z,99767.28
2023-02-14T01:38:24.559Z,99766.25
2023-02-14T01:41:34.295Z,99759.41
2023-02-14T01:45:03.397Z,99759.59
2023-02-14T01:48:13.855Z,99761.84
2023-02-14T01:51:24.975Z,99742.38
2023-02-14T01:54:41.757Z,99741.91
2023-02-14T01:57:57.228Z,99747.00
2023-02-14T02:01:03.586Z,99746.53
2023-02-14T02:04:20.016Z,99739.94
2023-02-14T02:07:33.081Z,99734.31
2023-02-14T02:10:39.821Z,99738.16
2023-02-14T02:13:46.631Z,99734.69
2023-02-14T02:17:24.096Z,99740.91
2023-02-14T02:21:08.453Z,99737.50
2023-02-14T02:24:35.410Z,99729.78
2023-02-14T02:28:13.436Z,99732.63
2023-02-14T02:31:47.708Z,99740.50
2023-02-14T02:35:48.846Z,99739.56
2023-02-14T02:39:15.804Z,99746.16
2023-02-14T02:42:40.228Z,99748.69
2023-02-14T02:46:14.062Z,99741.53
2023-02-14T02:49:52.442Z,99751.31
2023-02-14T02:53:15.124Z,99749.53
2023-02-14T02:56:43.981Z,99741.06
2023-02-14T02:59:55.217Z,99754.59
2023-02-14T03:03:15.815Z,99746.31
2023-02-14T03:06:22.032Z,99749.63
2023-02-14T03:10:00.920Z,99705.16
2023-02-14T03:13:56.333Z,99744.00
2023-02-14T03:17:32.937Z,99738.81
2023-02-14T03:21:02.452Z,99712.00
2023-02-14T03:24:20.866Z,99743.25
2023-02-14T03:27:38.330Z,99740.69
2023-02-14T03:31:00.342Z,99723.66
2023-02-14T03:34:19.902Z,99744.25
2023-02-14T03:37:38.194Z,99741.44
2023-02-14T03:40:54.904Z,99745.59
2023-02-14T03:44:13.029Z,99757.44
2023-02-14T03:47:27.175Z,99759.59
2023-02-14T03:50:37.735Z,99756.88
2023-02-14T03:53:52.078Z,99750.47
2023-02-14T03:57:16.185Z,99752.53
2023-02-14T04:00:29.561Z,99758.56
2023-02-14T04:03:45.392Z,99752.44
2023-02-14T04:06:51.637Z,99755.16
2023-02-14T04:09:58.408Z,99753.47
2023-02-14T04:13:07.786Z,99750.56
2023-02-14T04:16:17.255Z,99754.81
2023-02-14T04:19:23.668Z,99748.69
2023-02-14T04:22:35.272Z,99746.34
2023-02-14T04:25:43.351Z,99748.88
2023-02-14T04:28:50.144Z,99747.00
2023-02-14T04:31:58.689Z,99745.88
2023-02-14T04:35:08.818Z,99746.72
2023-02-14T04:38:14.891Z,99747.38
2023-02-14T04:41:21.552Z,99750.84
2023-02-14T04:44:27.832Z,99751.03
2023-02-14T04:47:37.217Z,99755.00
2023-02-14T04:50:47.612Z,99748.59
2023-02-14T04:53:54.362Z,99760.44
2023-02-14T04:57:00.346Z,99762.97
2023-02-14T05:00:12.221Z,99762.13
2023-02-14T05:03:20.673Z,99767.97
2023-02-14T05:06:34.571Z,99768.91
2023-02-14T05:09:40.575Z,99769.28
2023-02-14T05:12:47.333Z,99771.81
2023-02-14T05:15:53.608Z,99778.97
2023-02-14T05:19:02.950Z,99779.25
2023-02-14T05:22:08.911Z,99772.09
2023-02-14T05:25:15.527Z,99776.81
2023-02-14T05:28:22.565Z,99775.59
2023-02-14T05:31:29.339Z,99779.25
2023-02-14T05:34:38.189Z,99781.38
2023-02-14T05:37:46.929Z,99779.59
2023-02-14T05:40:52.915Z,99784.84
2023-02-14T05:43:59.619Z,99780.16
2023-02-14T05:47:05.721Z,99793.31
2023-02-14T05:50:15.402Z,99790.69
2023-02-14T05:53:21.441Z,99785.50
2023-02-14T05:56:28.296Z,99779.50
2023-02-14T05:59:34.148Z,99781.28
2023-02-14T06:02:40.793Z,99783.16
2023-02-14T06:05:49.252Z,99791.41
2023-02-14T06:08:56.136Z,99790.38
2023-02-14T06:12:01.944Z,99795.69
2023-02-14T06:15:10.117Z,99798.91
2023-02-14T06:18:16.079Z,99804.03
2023-02-14T06:21:25.622Z,99799.81
2023-02-14T06:24:31.743Z,99801.59
2023-02-14T06:27:38.503Z,99805.56
2023-02-14T06:30:45.506Z,99801.53
2023-02-14T06:33:52.515Z,99803.03
2023-02-14T06:37:01.077Z,99801.72
2023-02-14T06:40:10.164Z,99793.63
2023-02-14T06:43:16.173Z,99800.78
2023-02-14T06:46:23.218Z,99802.47
2023-02-14T06:49:29.316Z,99811.50
2023-02-14T06:52:38.706Z,99802.25
2023-02-14T06:55:45.437Z,99791.44
2023-02-14T06:58:52.202Z,99808.78
2023-02-14T07:01:58.029Z,99814.63
2023-02-14T07:05:04.820Z,99813.34
2023-02-14T07:08:13.347Z,99822.47
2023-02-14T07:11:20.044Z,99816.09
2023-02-14T07:14:26.290Z,99824.38
2023-02-14T07:17:32.953Z,99820.25
2023-02-14T07:20:38.997Z,99813.28
2023-02-14T07:23:50.214Z,99821.56
2023-02-14T07:26:56.134Z,99823.38
2023-02-14T07:30:02.898Z,99824.31
2023-02-14T07:33:08.960Z,99816.31
2023-02-14T07:36:15.782Z,99815.63
2023-02-14T07:39:24.377Z,99818.13
2023-02-14T07:42:31.332Z,99826.47
2023-02-14T07:45:37.900Z,99827.88
2023-02-14T07:48:44.569Z,99824.75
2023-02-14T07:51:50.554Z,99821.00
2023-02-14T07:54:59.894Z,99827.00
2023-02-14T07:58:05.946Z,99819.88
2023-02-14T08:01:12.806Z,99829.09
2023-02-14T08:04:18.720Z,99824.88
2023-02-14T08:07:25.592Z,99818.75
2023-02-14T08:10:34.188Z,99826.25
2023-02-14T08:13:41.016Z,99819.38
2023-02-14T08:16:46.871Z,99819.13
2023-02-14T08:19:53.616Z,99824.97
2023-02-14T08:22:59.967Z,99836.44
2023-02-14T08:26:09.872Z,99837.47
2023-02-14T08:29:16.907Z,99838.78
2023-02-14T08:32:23.903Z,99835.88
2023-02-14T08:35:29.925Z,99834.16
2023-02-14T08:38:36.615Z,99837.84
2023-02-14T08:41:45.082Z,99835.91
2023-02-14T08:44:51.770Z,99839.94
2023-02-14T08:47:57.722Z,99845.41
2023-02-14T08:51:09.746Z,99840.16
2023-02-14T08:54:16.146Z,99845.91
2023-02-14T08:57:25.482Z,99850.78
2023-02-14T09:00:31.438Z,99856.53
2023-02-14T09:03:38.606Z,99849.19
2023-02-14T09:06:44.704Z,99850.09
2023-02-14T09:09:51.438Z,99848.69
2023-02-14T09:12:59.868Z,99856.75
2023-02-14T09:16:08.642Z,99856.81
2023-02-14T09:19:15.007Z,99852.78
2023-02-14T09:22:23.365Z,99843.75
2023-02-14T09:25:29.191Z,99857.97
2023-02-14T09:28:39.577Z,99845.91
2023-02-14T09:31:45.819Z,99850.72
2023-02-14T09:34:52.733Z,99849.00
2023-02-14T09:37:58.774Z,99854.38
2023-02-14T09:41:11.402Z,99868.06
2023-02-14T09:44:34.602Z,99865.25
2023-02-14T09:47:54.257Z,99867.16
2023-02-14T09:51:06.730Z,99860.19
2023-02-14T09:54:22.200Z,99870.47
2023-02-14T09:57:46.800Z,99859.63
2023-02-14T10:01:09.870Z,99854.91
2023-02-14T10:04:39.648Z,99847.66
2023-02-14T10:08:11.423Z,99858.22
2023-02-14T10:11:24.951Z,99857.44
2023-02-14T10:14:41.189Z,99853.47
2023-02-14T10:17:57.030Z,99858.22
2023-02-14T10:21:08.163Z,99854.28
2023-02-14T10:24:24.458Z,99854.38
2023-02-14T10:27:39.884Z,99854.28
2023-02-14T10:31:03.985Z,99851.91
2023-02-14T10:34:24.189Z,99857.91
2023-02-14T10:38:00.147Z,99856.63
2023-02-14T10:41:35.770Z,99856.50
2023-02-14T10:44:58.964Z,99851.47
2023-02-14T10:48:26.528Z,99851.91
2023-02-14T10:51:48.280Z,99846.66
2023-02-14T10:55:03.183Z,99848.38
2023-02-14T10:58:16.337Z,99843.19
2023-02-14T11:01:23.544Z,99838.97
2023-02-14T11:04:33.547Z,99835.94
2023-02-14T11:07:42.877Z,99830.22
2023-02-14T11:10:49.851Z,99827.34
2023-02-14T11:13:57.122Z,99822.91
2023-02-14T11:17:23.168Z,99823.03
2023-02-14T11:20:32.581Z,99828.63
2023-02-14T11:23:44.312Z,99823.34
2023-02-14T11:26:57.729Z,99821.44
2023-02-14T11:30:03.901Z,99822.06
2023-02-14T11:33:25.876Z,99818.72
2023-02-14T11:36:34.873Z,99817.81
2023-02-14T11:39:44.696Z,99818.56
2023-02-14T11:42:54.632Z,99809.81
2023-02-14T11:46:28.281Z,99804.63
2023-02-14T11:49:44.338Z,99810.56
2023-02-14T11:53:00.664Z,99804.94
2023-02-14T11:56:16.954Z,99797.34
2023-02-14T11:59:34.711Z,99804.63
2023-02-14T12:02:46.643Z,99784.53
2023-02-14T12:06:00.697Z,99787.66
2023-02-14T12:09:27.160Z,99789.44
2023-02-14T12:12:40.218Z,99776.34
2023-02-14T12:15:57.667Z,99779.09
2023-02-14T12:19:09.917Z,99790.41
2023-02-14T12:22:26.329Z,99786.25
2023-02-14T12:25:49.851Z,99784.28
2023-02-14T12:29:13.403Z,99774.94
2023-02-14T12:32:27.237Z,99764.41
2023-02-14T12:36:12.660Z,99765.56
2023-02-14T12:39:39.235Z,99766.75
2023-02-14T12:43:12.832Z,99765.53
2023-02-14T12:47:02.610Z,99757.94
2023-02-14T12:50:37.096Z,99757.06
2023-02-14T12:54:30.894Z,99749.66
2023-02-14T12:57:53.111Z,99757.88
2023-02-14T13:01:28.844Z,99757.88
2023-02-14T13:05:02.634Z,99751.31
2023-02-14T13:08:35.292Z,99753.41
2023-02-14T13:12:02.457Z,99753.41
2023-02-14T13:15:29.842Z,99747.06
2023-02-14T13:18:53.059Z,99737.09
2023-02-14T13:22:07.917Z,99747.16
2023-02-14T13:25:31.991Z,99732.75
2023-02-14T13:28:45.221Z,99730.56
2023-02-14T13:31:57.067Z,99733.81
2023-02-14T13:35:05.623Z,99737.66
2023-02-14T13:38:21.622Z,99741.88
2023-02-14T13:41:31.733Z,99729.97
2023-02-14T13:44:50.628Z,99735.78
2023-02-14T13:48:11.474Z,99730.91
2023-02-14T13:51:17.597Z,99734.50
2023-02-14T13:54:46.835Z,99723.09
2023-02-14T13:58:07.870Z,99732.44
2023-02-14T14:01:35.942Z,99733.78
2023-02-14T14:04:42.086Z,99735.63
2023-02-14T14:07:48.804Z,99735.25
2023-02-14T14:11:00.982Z,99736.69
2023-02-14T14:14:40.699Z,99734.88
2023-02-14T14:17:51.507Z,99741.44
2023-02-14T14:20:58.650Z,99729.41
2023-02-14T14:24:26.317Z,99738.84
2023-02-14T14:27:43.524Z,99734.19
2023-02-14T14:30:50.662Z,99733.22
2023-02-14T14:34:03.662Z,99731.94
2023-02-14T14:37:20.193Z,99735.97
2023-02-14T14:40:32.426Z,99743.66
2023-02-14T14:43:44.012Z,99741.44
2023-02-14T14:46:51.988Z,99737.34
2023-02-14T14:50:10.378Z,99743.16
2023-02-14T14:53:30.795Z,99739.63
2023-02-14T14:56:47.300Z,99730.25
2023-02-14T15:00:31.742Z,99738.69
2023-02-14T15:03:37.859Z,99729.41
2023-02-14T15:06:47.440Z,99731.94
2023-02-14T15:09:53.528Z,99733.88
2023-02-14T15:13:14.890Z,99724.25
2023-02-14T15:16:33.830Z,99731.97
2023-02-14T15:19:51.193Z,99731.97
2023-02-14T15:22:57.672Z,99731.66
2023-02-14T15:26:07.964Z,99723.91
2023-02-14T15:29:26.601Z,99735.31
2023-02-14T15:32:40.344Z,99726.38
2023-02-14T15:35:51.637Z,99734.41
2023-02-14T15:39:06.498Z,99737.84
2023-02-14T15:42:29.635Z,99738.06
2023-02-14T15:45:37.928Z,99734.31
2023-02-14T15:48:49.480Z,99733.75
2023-02-14T15:51:57.789Z,99734.56
2023-02-14T15:55:10.345Z,99735.97
2023-02-14T15:58:29.255Z,99730.81
2023-02-14T16:01:45.882Z,99732.38
2023-02-14T16:05:12.083Z,99734.19
2023-02-14T16:08:34.175Z,99746.19
2023-02-14T16:11:41.709Z,99741.41
2023-02-14T16:15:01.737Z,99749.66
2023-02-14T16:18:22.458Z,99748.50
2023-02-14T16:21:36.371Z,99748.28
2023-02-14T16:24:43.641Z,99759.28
2023-02-14T16:27:49.491Z,99752.44
2023-02-14T16:31:05.233Z,99756.44
2023-02-14T16:34:16.050Z,99763.69
2023-02-14T16:37:31.781Z,99760.88
2023-02-14T16:40:48.199Z,99751.59
2023-02-14T16:43:55.337Z,99766.88
2023-02-14T16:47:01.174Z,99770.56
2023-02-14T16:50:11.544Z,99763.59
2023-02-14T16:53:38.224Z,99768.91
2023-02-14T16:56:54.487Z,99771.44
2023-02-14T17:00:00.706Z,99771.44
2023-02-14T17:03:11.778Z,99774.09
2023-02-14T17:06:27.755Z,99782.31
2023-02-14T17:09:45.814Z,99762.66
2023-02-14T17:12:54.658Z,99776.78
2023-02-14T17:16:04.920Z,99774.81
2023-02-14T17:19:16.778Z,99778.69
2023-02-14T17:22:24.808Z,99766.34
2023-02-14T17:25:39.220Z,99773.22
2023-02-14T17:28:46.612Z,99782.19
2023-02-14T17:31:52.540Z,99775.00
2023-02-14T17:35:05.101Z,99778.41
2023-02-14T17:38:11.045Z,99771.41
2023-02-14T17:41:24.591Z,99763.19
2023-02-14T17:44:32.646Z,99777.66
2023-02-14T17:47:45.410Z,99779.88
2023-02-14T17:50:51.373Z,99776.25
2023-02-14T17:53:59.077Z,99776.47
2023-02-14T17:57:07.848Z,99783.63
2023-02-14T18:00:16.837Z,99779.22
2023-02-14T18:03:24.060Z,99780.16
2023-02-14T18:06:36.794Z,99782.16
2023-02-14T18:09:47.615Z,99781.09
2023-02-14T18:12:56.920Z,99782.16
2023-02-14T18:16:12.910Z,99781.94
2023-02-14T18:19:19.831Z,99781.31
2023-02-14T18:22:27.331Z,99783.63
2023-02-14T18:25:40.446Z,99773.41
2023-02-14T18:28:51.108Z,99772.03
2023-02-14T18:31:59.365Z,99766.03
2023-02-14T18:35:05.258Z,99764.25
2023-02-14T18:38:12.741Z,99758.63
2023-02-14T18:41:24.622Z,99757.16
2023-02-14T18:44:34.476Z,99764.56
2023-02-14T18:47:40.371Z,99763.59
2023-02-14T18:50:47.178Z,99766.13
2023-02-14T18:53:55.612Z,99753.88
2023-02-14T18:57:08.597Z,99754.09
2023-02-14T19:00:23.146Z,99753.25
2023-02-14T19:03:40.923Z,99764.53
2023-02-14T19:06:46.865Z,99752.16
2023-02-14T19:09:54.046Z,99756.84
2023-02-14T19:13:00.106Z,99749.00
2023-02-14T19:16:20.701Z,99754.06
2023-02-14T19:19:26.599Z,99749.75
2023-02-14T19:22:33.319Z,99747.44
2023-02-14T19:25:42.925Z,99739.09
2023-02-14T19:28:53.367Z,99751.75
2023-02-14T19:32:03.907Z,99737.69
2023-02-14T19:35:12.067Z,99742.53
2023-02-14T19:38:17.841Z,99746.56
2023-02-14T19:41:30.023Z,99743.63
2023-02-14T19:44:35.820Z,99737.84
2023-02-14T19:47:47.425Z,99741.81
2023-02-14T19:50:55.376Z,99749.81
2023-02-14T19:54:05.990Z,99747.19
2023-02-14T19:57:18.002Z,99751.97
2023-02-14T20:00:25.242Z,99754.47
2023-02-14T20:03:42.910Z,99753.44
2023-02-14T20:06:51.256Z,99754.78
2023-02-14T20:09:57.855Z,99763.56
2023-02-14T20:13:16.566Z,99756.56
2023-02-14T20:16:23.275Z,99757.63
2023-02-14T20:19:38.135Z,99760.06
2023-02-14T20:22:44.551Z,99751.59
2023-02-14T20:25:51.198Z,99754.06
2023-02-14T20:28:57.823Z,99746.31
2023-02-14T20:32:05.076Z,99749.78
2023-02-14T20:35:13.675Z,99749.38
2023-02-14T20:38:20.596Z,99745.69
2023-02-14T20:41:27.871Z,99743.28
2023-02-14T20:44:34.922Z,99744.75
2023-02-14T20:47:40.782Z,99744.63
2023-02-14T20:50:50.278Z,99744.97
2023-02-14T20:53:57.179Z,99743.16
2023-02-14T20:57:03.873Z,99741.38
2023-02-14T21:00:12.297Z,99744.84
2023-02-14T21:03:18.938Z,99742.09
2023-02-14T21:06:31.638Z,99737.44
2023-02-14T21:09:38.736Z,99744.22
2023-02-14T21:12:44.703Z,99739.75
2023-02-14T21:15:51.442Z,99739.19
2023-02-14T21:19:01.366Z,99742.78
2023-02-14T21:22:10.889Z,99732.25
2023-02-14T21:25:16.717Z,99732.03
2023-02-14T21:28:23.437Z,99723.56
2023-02-14T21:31:29.461Z,99730.31
2023-02-14T21:34:36.751Z,99721.28
2023-02-14T21:37:45.320Z,99716.41
2023-02-14T21:40:52.048Z,99705.50
2023-02-14T21:43:59.385Z,99711.53
2023-02-14T21:47:06.050Z,99716.41
2023-02-14T21:50:26.142Z,99711.78
2023-02-14T21:53:36.640Z,99704.06
2023-02-14T21:56:44.418Z,99704.56
2023-02-14T21:59:51.211Z,99700.34
2023-02-14T22:02:57.172Z,99697.16
2023-02-14T22:06:08.941Z,99701.19
2023-02-14T22:09:19.156Z,99707.97
2023-02-14T22:12:25.829Z,99700.06
2023-02-14T22:15:31.702Z,99699.88
2023-02-14T22:18:38.834Z,99698.47
2023-02-14T22:21:46.426Z,99702.88
2023-02-14T22:24:55.705Z,99689.81
2023-02-14T22:28:02.439Z,99695.06
2023-02-14T22:31:10.072Z,99696.81
2023-02-14T22:34:20.016Z,99686.31
2023-02-14T22:37:29.705Z,99685.81
2023-02-14T22:40:39.289Z,99696.19
2023-02-14T22:43:47.400Z,99689.66
2023-02-14T22:46:53.347Z,99688.91
2023-02-14T22:50:01.164Z,99684.91
2023-02-14T22:53:07.795Z,99678.31
2023-02-14T22:56:21.484Z,99674.22
2023-02-14T22:59:32.363Z,99669.84
2023-02-14T23:02:39.110Z,99676.56
2023-02-14T23:05:44.962Z,99679.63
2023-02-14T23:08:51.985Z,99672.25
2023-02-14T23:12:00.469Z,99667.72
2023-02-14T23:15:19.942Z,99670.94
2023-02-14T23:18:38.174Z,99659.09
2023-02-14T23:21:59.676Z,99653.53
2023-02-14T23:25:10.656Z,99659.66
2023-02-14T23:28:20.019Z,99652.97
2023-02-14T23:31:25.995Z,99656.41
2023-02-14T23:34:37.187Z,99659.88
2023-02-14T23:37:42.993Z,99649.97
2023-02-14T23:41:02.011Z,99649.28
2023-02-14T23:44:11.284Z,99649.06
2023-02-14T23:47:18.931Z,99652.25
2023-02-14T23:50:25.065Z,99647.00
2023-02-14T23:53:31.694Z,99646.78
2023-02-14T23:56:38.191Z,99647.94
2023-02-14T23:59:47.475Z,99646.03
